nws-alerts: Checking more than four warning/county codes can delay the loading of your pages. You should use a cron job to get the data.
EllijayWeather Station Historical Data
Daily Summary for January 19, 2020 Units:  Metric    English   Both
Daily Weekly Monthly Yearly Custom
  High: Low: Average:
Temperature: 7.8 °C -3.2 °C 3.1 °C
Dew Point: 7.7 °C -8.9 °C -1.6 °C
Humidity: 99% 50% 73%
Wind Speed: 17.7km/h 0km/h 2.1km/h
Wind Gust: 22.5km/h - -
Wind- - West
Pressure: 1026.6 hPa 1019.5 hPa -
Precipitation: 0 mm    
Historical Graphs
 
 
Tabular Data for January 19, 2020
Time Temperature Dew Point Pressure Wind Wind Speed Wind Gust Humidity Rainfall Rate (Hourly) solar
00:00 7.3 °C 7 °C 1020.9 hPa Calm     98% 0.25 mm meteobridge W/m2
00:05 7.3 °C 7 °C 1020.9 hPa Calm     98% 0 mm meteobridge W/m2
00:10 7.3 °C 7 °C 1020.5 hPa Calm     98% 0 mm meteobridge W/m2
00:15 7.3 °C 7 °C 1020.5 hPa Calm     98% 0 mm meteobridge W/m2
00:20 7.3 °C 7 °C 1020.5 hPa Calm     98% 0 mm meteobridge W/m2
00:25 7.4 °C 7.1 °C 1020.5 hPa Calm     98% 0 mm meteobridge W/m2
00:30 7.4 °C 7.1 °C 1020.5 hPa Calm     98% 0 mm meteobridge W/m2
00:35 7.3 °C 7 °C 1020.5 hPa Calm     98% 0 mm meteobridge W/m2
00:40 7.4 °C 7.1 °C 1020.5 hPa Calm     98% 0 mm meteobridge W/m2
00:45 7.4 °C 7.1 °C 1020.5 hPa Calm     98% 0 mm meteobridge W/m2
00:50 7.4 °C 7.1 °C 1020.5 hPa Calm     98% 0 mm meteobridge W/m2
00:55 7.4 °C 7.1 °C 1020.2 hPa Calm     98% 0 mm meteobridge W/m2
01:00 7.4 °C 7.1 °C 1020.2 hPa Calm     98% 0 mm meteobridge W/m2
01:05 7.4 °C 7.1 °C 1020.2 hPa Calm     98% 0 mm meteobridge W/m2
01:10 7.4 °C 7.1 °C 1020.2 hPa Calm     98% 0 mm meteobridge W/m2
01:15 7.4 °C 7.1 °C 1020.2 hPa Calm     98% 0 mm meteobridge W/m2
01:20 7.4 °C 7.1 °C 1019.9 hPa Calm     98% 0 mm meteobridge W/m2
01:25 7.4 °C 7.1 °C 1019.9 hPa Calm     98% 0 mm meteobridge W/m2
01:30 7.4 °C 7.1 °C 1019.9 hPa Calm     98% 0 mm meteobridge W/m2
01:35 7.4 °C 7.1 °C 1019.9 hPa Calm     98% 0 mm meteobridge W/m2
01:40 7.5 °C 7.2 °C 1019.9 hPa Calm     98% 0 mm meteobridge W/m2
01:45 7.5 °C 7.2 °C 1019.5 hPa Calm     98% 0 mm meteobridge W/m2
01:50 7.5 °C 7.2 °C 1019.9 hPa Calm     98% 0 mm meteobridge W/m2
01:55 7.6 °C 7.3 °C 1019.9 hPa Calm     98% 0 mm meteobridge W/m2
02:00 7.6 °C 7.3 °C 1019.9 hPa Calm     98% 0 mm meteobridge W/m2
02:05 7.6 °C 7.3 °C 1019.9 hPa Calm     98% 0 mm meteobridge W/m2
02:10 7.6 °C 7.3 °C 1019.9 hPa Calm     98% 0 mm meteobridge W/m2
02:15 7.6 °C 7.5 °C 1019.9 hPa Calm     99% 0 mm meteobridge W/m2
02:20 7.7 °C 7.6 °C 1019.9 hPa Calm     99% 0 mm meteobridge W/m2
02:25 7.7 °C 7.6 °C 1019.9 hPa Calm     99% 0 mm meteobridge W/m2
02:30 7.7 °C 7.6 °C 1019.9 hPa Calm     99% 0 mm meteobridge W/m2
02:35 7.8 °C 7.7 °C 1019.9 hPa Calm   1.6 km/h 99% 0 mm meteobridge W/m2
02:40 7.8 °C 7.7 °C 1020.2 hPa Calm   1.6 km/h 99% 0 mm meteobridge W/m2
02:45 7.8 °C 7.7 °C 1020.2 hPa Calm     99% 0 mm meteobridge W/m2
02:50 7.7 °C 7.4 °C 1020.2 hPa Calm     98% 0 mm meteobridge W/m2
02:55 7.6 °C 7.3 °C 1019.9 hPa Calm     98% 0 mm meteobridge W/m2
03:00 7.5 °C 7.2 °C 1019.9 hPa Calm     98% 0 mm meteobridge W/m2
03:05 7.4 °C 7.1 °C 1019.9 hPa Calm   8 km/h 98% 0 mm meteobridge W/m2
03:10 7.4 °C 7.1 °C 1019.9 hPa Calm   1.6 km/h 98% 0 mm meteobridge W/m2
03:15 7.3 °C 7 °C 1019.9 hPa Calm     98% 0 mm meteobridge W/m2
03:20 7.2 °C 6.9 °C 1019.9 hPa Calm   8 km/h 98% 0 mm meteobridge W/m2
03:25 7.2 °C 6.9 °C 1019.9 hPa Calm     98% 0 mm meteobridge W/m2
03:30 7.2 °C 6.9 °C 1020.2 hPa Calm     98% 0 mm meteobridge W/m2
03:35 7.2 °C 6.9 °C 1019.9 hPa Calm   4.8 km/h 98% 0 mm meteobridge W/m2
03:40 7.2 °C 6.9 °C 1019.9 hPa Calm   1.6 km/h 98% 0 mm meteobridge W/m2
03:45 7.2 °C 6.9 °C 1019.9 hPa Calm   6.4 km/h 98% 0 mm meteobridge W/m2
03:50 7.1 °C 6.8 °C 1019.9 hPa Calm   3.2 km/h 98% 0 mm meteobridge W/m2
03:55 7.1 °C 6.8 °C 1019.9 hPa NNW 3.2 km/h 8 km/h 98% 0 mm meteobridge W/m2
04:00 6.9 °C 6.5 °C 1019.9 hPa NW 1.4 km/h 4.8 km/h 97% 0 mm meteobridge W/m2
04:05 6.9 °C 6.5 °C 1019.9 hPa WNW 1.4 km/h 4.8 km/h 97% 0 mm meteobridge W/m2
04:10 6.9 °C 6.5 °C 1019.9 hPa Calm   4.8 km/h 97% 0 mm meteobridge W/m2
04:15 6.8 °C 6.4 °C 1019.9 hPa Calm   6.4 km/h 97% 0 mm meteobridge W/m2
04:20 6.7 °C 6.3 °C 1019.9 hPa WNW 1.4 km/h 3.2 km/h 97% 0 mm meteobridge W/m2
04:25 6.6 °C 6.2 °C 1019.9 hPa Calm   3.2 km/h 97% 0 mm meteobridge W/m2
04:30 6.3 °C 5.7 °C 1019.9 hPa NW 3.2 km/h 3.2 km/h 96% 0 mm meteobridge W/m2
04:35 6.2 °C 5.6 °C 1019.9 hPa Calm   3.2 km/h 96% 0 mm meteobridge W/m2
04:40 6.1 °C 5.5 °C 1019.9 hPa Calm   1.6 km/h 96% 0 mm meteobridge W/m2
04:45 5.9 °C 5.3 °C 1020.2 hPa Calm   4.8 km/h 96% 0 mm meteobridge W/m2
04:50 5.7 °C 5 °C 1020.2 hPa Calm   4.8 km/h 95% 0 mm meteobridge W/m2
04:55 5.6 °C 4.9 °C 1020.2 hPa Calm     95% 0 mm meteobridge W/m2
05:00 5.4 °C 4.7 °C 1020.5 hPa Calm     95% 0 mm meteobridge W/m2
05:05 5.3 °C 4.6 °C 1020.5 hPa Calm   6.4 km/h 95% 0 mm meteobridge W/m2
05:10 5.1 °C 4.2 °C 1020.5 hPa NNE 1.4 km/h 3.2 km/h 94% 0 mm meteobridge W/m2
05:15 4.8 °C 3.5 °C 1020.5 hPa NNW 4.7 km/h 12.9 km/h 91% 0 mm meteobridge W/m2
05:20 4.6 °C 3.1 °C 1020.5 hPa SW 1.4 km/h 8 km/h 90% 0 mm meteobridge W/m2
05:25 4.3 °C 2.5 °C 1020.5 hPa Calm   6.4 km/h 88% 0 mm meteobridge W/m2
05:30 4.1 °C 2.5 °C 1020.5 hPa North 1.4 km/h 1.6 km/h 89% 0 mm meteobridge W/m2
05:35 3.8 °C 1.8 °C 1020.9 hPa Calm   3.2 km/h 87% 0 mm meteobridge W/m2
05:40 3.7 °C 1.6 °C 1020.9 hPa SW 4.7 km/h 11.3 km/h 86% 0 mm meteobridge W/m2
05:45 3.5 °C 1.9 °C 1020.5 hPa Calm   3.2 km/h 89% 0 mm meteobridge W/m2
05:50 3.3 °C 1.7 °C 1020.5 hPa Calm   3.2 km/h 89% 0 mm meteobridge W/m2
05:55 3.2 °C 1.6 °C 1020.5 hPa North 1.4 km/h 4.8 km/h 89% 0 mm meteobridge W/m2
06:00 3.2 °C 2 °C 1020.5 hPa Calm     92% 0 mm meteobridge W/m2
06:05 3 °C 1.7 °C 1020.9 hPa Calm   3.2 km/h 91% 0 mm meteobridge W/m2
06:10 2.9 °C 1.6 °C 1020.9 hPa Calm     91% 0 mm meteobridge W/m2
06:15 2.8 °C 1.3 °C 1021.2 hPa Calm   6.4 km/h 90% 0 mm meteobridge W/m2
06:20 2.8 °C 1.6 °C 1021.2 hPa Calm     92% 0 mm meteobridge W/m2
06:25 2.6 °C 1.3 °C 1020.9 hPa Calm   1.6 km/h 91% 0 mm meteobridge W/m2
06:30 2.6 °C 1 °C 1021.2 hPa NW 1.4 km/h 6.4 km/h 89% 0 mm meteobridge W/m2
06:35 2.5 °C 1 °C 1020.9 hPa North 4.7 km/h 4.8 km/h 90% 0 mm meteobridge W/m2
06:40 2.4 °C 0.5 °C 1021.2 hPa Calm   6.4 km/h 87% 0 mm meteobridge W/m2
06:45 2.4 °C 0.5 °C 1021.2 hPa Calm   3.2 km/h 87% 0 mm meteobridge W/m2
06:50 2.3 °C 0.2 °C 1021.2 hPa NNW 1.4 km/h 3.2 km/h 86% 0 mm meteobridge W/m2
06:55 2.3 °C 0.2 °C 1021.2 hPa Calm   3.2 km/h 86% 0 mm meteobridge W/m2
07:00 2.2 °C 0.3 °C 1021.2 hPa North 1.4 km/h 1.6 km/h 87% 0 mm meteobridge W/m2
07:05 2.1 °C 0.2 °C 1021.6 hPa Calm   1.6 km/h 87% 0 mm meteobridge W/m2
07:10 2.1 °C 0 °C 1021.6 hPa Calm   8 km/h 86% 0 mm meteobridge W/m2
07:15 1.9 °C -0.2 °C 1021.6 hPa Calm   6.4 km/h 86% 0 mm meteobridge W/m2
07:20 1.8 °C -0.1 °C 1021.6 hPa West 3.2 km/h 4.8 km/h 87% 0 mm meteobridge W/m2
07:25 1.8 °C 0 °C 1021.9 hPa Calm     88% 0 mm meteobridge W/m2
07:30 1.7 °C -0.4 °C 1021.9 hPa NW 3.2 km/h 8 km/h 86% 0 mm meteobridge W/m2
07:35 1.7 °C -0.1 °C 1021.9 hPa Calm   3.2 km/h 88% 0 mm meteobridge W/m2
07:40 1.6 °C -0.2 °C 1021.9 hPa WNW 3.2 km/h 6.4 km/h 88% 0 mm meteobridge W/m2
07:45 1.5 °C -0.3 °C 1021.9 hPa Calm   1.6 km/h 88% 0 mm meteobridge W/m2
07:50 1.4 °C -0.5 °C 1021.9 hPa WNW 3.2 km/h 3.2 km/h 87% 0 mm meteobridge W/m2
07:55 1.4 °C -0.5 °C 1022.2 hPa NW 3.2 km/h 6.4 km/h 87% 0 mm meteobridge W/m2
08:00 1.3 °C -1.1 °C 1022.2 hPa Calm   9.7 km/h 84% 0 mm meteobridge W/m2
08:05 1.3 °C -1.1 °C 1022.2 hPa North 3.2 km/h 6.4 km/h 84% 0 mm meteobridge W/m2
08:10 1.3 °C -1.4 °C 1022.2 hPa North 1.4 km/h 8 km/h 82% 0 mm meteobridge W/m2
08:15 1.2 °C -0.9 °C 1022.6 hPa Calm   1.6 km/h 86% 0 mm meteobridge W/m2
08:20 1.2 °C -1.2 °C 1022.6 hPa NNW 3.2 km/h 3.2 km/h 84% 0 mm meteobridge W/m2
08:25 1.1 °C -1.8 °C 1022.6 hPa Calm   6.4 km/h 81% 0 mm meteobridge W/m2
08:30 1.1 °C -2 °C 1022.6 hPa Calm   6.4 km/h 80% 0 mm meteobridge W/m2
08:35 1.1 °C -1.8 °C 1022.6 hPa NNE 7.9 km/h 8 km/h 81% 0 mm meteobridge W/m2
08:40 1.2 °C -2.2 °C 1022.9 hPa NNW 1.4 km/h 9.7 km/h 78% 0 mm meteobridge W/m2
08:45 1.1 °C -2.1 °C 1022.9 hPa Calm   4.8 km/h 79% 0 mm meteobridge W/m2
08:50 1.2 °C -1.4 °C 1022.9 hPa Calm     83% 0 mm meteobridge W/m2
08:55 1.1 °C -2.1 °C 1022.9 hPa WSW 3.2 km/h 9.7 km/h 79% 0 mm meteobridge W/m2
09:00 1.2 °C -1.9 °C 1023.2 hPa NNE 4.7 km/h 8 km/h 80% 0 mm meteobridge W/m2
09:05 1.2 °C -2.2 °C 1022.9 hPa NNW 1.4 km/h 4.8 km/h 78% 0 mm meteobridge W/m2
09:10 1.1 °C -2.7 °C 1023.2 hPa Calm   4.8 km/h 76% 0 mm meteobridge W/m2
09:15 1.1 °C -2.7 °C 1023.2 hPa NNW 1.4 km/h 8 km/h 76% 0 mm meteobridge W/m2
09:20 1.1 °C -2.5 °C 1023.2 hPa SE 1.4 km/h 6.4 km/h 77% 0 mm meteobridge W/m2
09:25 1 °C -2.6 °C 1023.2 hPa West 3.2 km/h 3.2 km/h 77% 0 mm meteobridge W/m2
09:30 0.9 °C -2.9 °C 1023.2 hPa NNW 1.4 km/h 9.7 km/h 76% 0 mm meteobridge W/m2
09:35 0.9 °C -2.7 °C 1023.2 hPa WNW 1.4 km/h 1.6 km/h 77% 0 mm meteobridge W/m2
09:40 0.9 °C -3 °C 1023.2 hPa NW 6.4 km/h 11.3 km/h 75% 0 mm meteobridge W/m2
09:45 0.9 °C -3 °C 1023.2 hPa Calm     75% 0 mm meteobridge W/m2
09:50 1.1 °C -2.8 °C 1023.2 hPa Calm   3.2 km/h 75% 0 mm meteobridge W/m2
09:55 1.2 °C -3.1 °C 1023.2 hPa WNW 4.7 km/h 9.7 km/h 73% 0 mm meteobridge W/m2
10:00 1.4 °C -3.5 °C 1023.2 hPa Calm   11.3 km/h 70% 0 mm meteobridge W/m2
10:05 1.7 °C -3 °C 1023.2 hPa Calm   8 km/h 71% 0 mm meteobridge W/m2
10:10 1.9 °C -2.8 °C 1023.2 hPa NW 1.4 km/h 1.6 km/h 71% 0 mm meteobridge W/m2
10:15 2.1 °C -3 °C 1023.2 hPa NNW 6.4 km/h 12.9 km/h 69% 0 mm meteobridge W/m2
10:20 2.3 °C -3.2 °C 1023.2 hPa Calm   4.8 km/h 67% 0 mm meteobridge W/m2
10:25 2.3 °C -4 °C 1023.2 hPa North 4.7 km/h 16.1 km/h 63% 0 mm meteobridge W/m2
10:30 2.3 °C -3.8 °C 1023.2 hPa NW 11.1 km/h 14.5 km/h 64% 0 mm meteobridge W/m2
10:35 2.3 °C -4.4 °C 1023.2 hPa SW 3.2 km/h 14.5 km/h 61% 0 mm meteobridge W/m2
10:40 2.3 °C -5.1 °C 1023.6 hPa WNW 3.2 km/h 20.9 km/h 58% 0 mm meteobridge W/m2
10:45 2.3 °C -5.3 °C 1023.2 hPa WNW 3.2 km/h 9.7 km/h 57% 0 mm meteobridge W/m2
10:50 2.4 °C -4.6 °C 1023.2 hPa Calm   11.3 km/h 60% 0 mm meteobridge W/m2
10:55 2.6 °C -3.5 °C 1023.2 hPa Calm   11.3 km/h 64% 0 mm meteobridge W/m2
11:00 2.7 °C -3.2 °C 1023.6 hPa NNW 4.7 km/h 16.1 km/h 65% 0 mm meteobridge W/m2
11:05 2.7 °C -3 °C 1023.6 hPa NNW 1.4 km/h 4.8 km/h 66% 0 mm meteobridge W/m2
11:10 2.8 °C -2.9 °C 1023.6 hPa SSE 9.7 km/h 9.7 km/h 66% 0 mm meteobridge W/m2
11:15 2.9 °C -3.2 °C 1023.6 hPa NNW 1.4 km/h 4.8 km/h 64% 0 mm meteobridge W/m2
11:20 2.9 °C -2.8 °C 1023.6 hPa NW 6.4 km/h 8 km/h 66% 0 mm meteobridge W/m2
11:25 2.9 °C -3.7 °C 1023.2 hPa NW 1.4 km/h 12.9 km/h 62% 0 mm meteobridge W/m2
11:30 3 °C -3.4 °C 1023.2 hPa WNW 3.2 km/h 11.3 km/h 63% 0 mm meteobridge W/m2
11:35 3.1 °C -3.3 °C 1023.2 hPa WNW 4.7 km/h 12.9 km/h 63% 0 mm meteobridge W/m2
11:40 3.2 °C -2.7 °C 1023.2 hPa Calm   3.2 km/h 65% 0 mm meteobridge W/m2
11:45 3.2 °C -3 °C 1023.2 hPa NW 3.2 km/h 4.8 km/h 64% 0 mm meteobridge W/m2
11:50 3.2 °C -3.4 °C 1023.2 hPa NW 4.7 km/h 8 km/h 62% 0 mm meteobridge W/m2
11:55 3.2 °C -3.4 °C 1023.2 hPa Calm   17.7 km/h 62% 0 mm meteobridge W/m2
12:00 3.1 °C -2.8 °C 1022.9 hPa South 3.2 km/h 6.4 km/h 65% 0 mm meteobridge W/m2
12:05 3.2 °C -3.2 °C 1022.9 hPa North 3.2 km/h 4.8 km/h 63% 0 mm meteobridge W/m2
12:10 3.2 °C -3.6 °C 1022.9 hPa NW 1.4 km/h 14.5 km/h 61% 0 mm meteobridge W/m2
12:15 3.3 °C -3.3 °C 1022.9 hPa NW 4.7 km/h 12.9 km/h 62% 0 mm meteobridge W/m2
12:20 3.4 °C -3.6 °C 1022.9 hPa North 1.4 km/h 8 km/h 60% 0 mm meteobridge W/m2
12:25 3.6 °C -3.2 °C 1022.9 hPa NNW 3.2 km/h 6.4 km/h 61% 0 mm meteobridge W/m2
12:30 3.7 °C -3.6 °C 1022.9 hPa NW 1.4 km/h 12.9 km/h 59% 0 mm meteobridge W/m2
12:35 3.7 °C -2.9 °C 1022.9 hPa West 1.4 km/h 9.7 km/h 62% 0 mm meteobridge W/m2
12:40 3.8 °C -3.5 °C 1022.6 hPa WSW 6.4 km/h 12.9 km/h 59% 0 mm meteobridge W/m2
12:45 3.8 °C -2.8 °C 1022.6 hPa WNW 7.9 km/h 8 km/h 62% 0 mm meteobridge W/m2
12:50 4 °C -3.1 °C 1022.6 hPa North 6.4 km/h 12.9 km/h 60% 0 mm meteobridge W/m2
12:55 4.1 °C -3.7 °C 1022.2 hPa NNW 3.2 km/h 8 km/h 57% 0 mm meteobridge W/m2
13:00 4.3 °C -2.8 °C 1022.6 hPa NW 1.4 km/h 6.4 km/h 60% 0 mm meteobridge W/m2
13:05 4.3 °C -3.2 °C 1022.2 hPa West 1.4 km/h 8 km/h 58% 0 mm meteobridge W/m2
13:10 4.2 °C -3.3 °C 1022.2 hPa NNW 1.4 km/h 3.2 km/h 58% 0 mm meteobridge W/m2
13:15 4.2 °C -3.8 °C 1022.2 hPa West 3.2 km/h 12.9 km/h 56% 0 mm meteobridge W/m2
13:20 4.3 °C -3 °C 1021.9 hPa Calm   3.2 km/h 59% 0 mm meteobridge W/m2
13:25 4.3 °C -3.9 °C 1021.9 hPa NNW 1.4 km/h 9.7 km/h 55% 0 mm meteobridge W/m2
13:30 4.4 °C -4.1 °C 1021.9 hPa WNW 7.9 km/h 11.3 km/h 54% 0 mm meteobridge W/m2
13:35 4.4 °C -4.3 °C 1021.9 hPa WNW 1.4 km/h 16.1 km/h 53% 0 mm meteobridge W/m2
13:40 4.4 °C -3.9 °C 1021.9 hPa West 13 km/h 12.9 km/h 55% 0 mm meteobridge W/m2
13:45 4.5 °C -4.3 °C 1021.9 hPa NW 3.2 km/h 11.3 km/h 53% 0 mm meteobridge W/m2
13:50 4.6 °C -3.2 °C 1021.9 hPa NNW 4.7 km/h 6.4 km/h 57% 0 mm meteobridge W/m2
13:55 4.6 °C -3.7 °C 1021.6 hPa NNW 1.4 km/h 4.8 km/h 55% 0 mm meteobridge W/m2
14:00 4.7 °C -3.8 °C 1021.6 hPa SW 1.4 km/h 12.9 km/h 54% 0 mm meteobridge W/m2
14:05 4.7 °C -4.3 °C 1021.6 hPa WNW 1.4 km/h 11.3 km/h 52% 0 mm meteobridge W/m2
14:10 4.7 °C -3.6 °C 1021.6 hPa West 3.2 km/h 11.3 km/h 55% 0 mm meteobridge W/m2
14:15 4.7 °C -3.6 °C 1021.6 hPa NW 1.4 km/h 3.2 km/h 55% 0 mm meteobridge W/m2
14:20 4.8 °C -2.8 °C 1021.6 hPa Calm   6.4 km/h 58% 0 mm meteobridge W/m2
14:25 4.8 °C -3.5 °C 1021.6 hPa NNE 1.4 km/h 6.4 km/h 55% 0 mm meteobridge W/m2
14:30 4.9 °C -3.4 °C 1021.6 hPa North 3.2 km/h 6.4 km/h 55% 0 mm meteobridge W/m2
14:35 4.9 °C -3.4 °C 1021.6 hPa North 7.9 km/h 9.7 km/h 55% 0 mm meteobridge W/m2
14:40 5.1 °C -3.2 °C 1021.6 hPa Calm   3.2 km/h 55% 0 mm meteobridge W/m2
14:45 5.1 °C -4 °C 1021.6 hPa Calm   3.2 km/h 52% 0 mm meteobridge W/m2
14:50 5.2 °C -3.9 °C 1021.6 hPa NW 3.2 km/h 6.4 km/h 52% 0 mm meteobridge W/m2
14:55 5.1 °C -4.2 °C 1021.6 hPa NW 9.7 km/h 12.9 km/h 51% 0 mm meteobridge W/m2
15:00 5 °C -4 °C 1021.6 hPa NW 1.4 km/h 9.7 km/h 52% 0 mm meteobridge W/m2
15:05 4.9 °C -3.6 °C 1021.6 hPa Calm   4.8 km/h 54% 0 mm meteobridge W/m2
15:10 4.9 °C -3.9 °C 1021.9 hPa Calm   4.8 km/h 53% 0 mm meteobridge W/m2
15:15 4.8 °C -4.7 °C 1021.9 hPa West 4.7 km/h 17.7 km/h 50% 0 mm meteobridge W/m2
15:20 4.8 °C -4.2 °C 1021.9 hPa Calm   4.8 km/h 52% 0 mm meteobridge W/m2
15:25 4.8 °C -4.2 °C 1021.9 hPa WNW 3.2 km/h 14.5 km/h 52% 0 mm meteobridge W/m2
15:30 4.8 °C -4.5 °C 1021.9 hPa Calm   9.7 km/h 51% 0 mm meteobridge W/m2
15:35 4.7 °C -4.3 °C 1021.9 hPa NW 3.2 km/h 12.9 km/h 52% 0 mm meteobridge W/m2
15:40 4.6 °C -4.2 °C 1021.9 hPa WNW 1.4 km/h 4.8 km/h 53% 0 mm meteobridge W/m2
15:45 4.6 °C -3.9 °C 1021.9 hPa WNW 7.9 km/h 16.1 km/h 54% 0 mm meteobridge W/m2
15:50 4.4 °C -4.9 °C 1021.9 hPa Calm   12.9 km/h 51% 0 mm meteobridge W/m2
15:55 4.3 °C -4.4 °C 1021.9 hPa WSW 3.2 km/h 9.7 km/h 53% 0 mm meteobridge W/m2
16:00 4.2 °C -4.8 °C 1021.9 hPa Calm   22.5 km/h 52% 0 mm meteobridge W/m2
16:05 4.1 °C -4.9 °C 1022.2 hPa NE 1.4 km/h 11.3 km/h 52% 0 mm meteobridge W/m2
16:10 4.1 °C -4.1 °C 1022.2 hPa SW 3.2 km/h 17.7 km/h 55% 0 mm meteobridge W/m2
16:15 4 °C -4.7 °C 1022.2 hPa WNW 6.4 km/h 12.9 km/h 53% 0 mm meteobridge W/m2
16:20 3.9 °C -4.6 °C 1022.2 hPa NE 1.4 km/h 4.8 km/h 54% 0 mm meteobridge W/m2
16:25 3.9 °C -4.8 °C 1022.6 hPa NNE 6.4 km/h 11.3 km/h 53% 0 mm meteobridge W/m2
16:30 3.9 °C -4.3 °C 1022.6 hPa NW 3.2 km/h 14.5 km/h 55% 0 mm meteobridge W/m2
16:35 3.9 °C -4.6 °C 1022.6 hPa Calm   6.4 km/h 54% 0 mm meteobridge W/m2
16:40 3.9 °C -4.6 °C 1022.9 hPa NW 3.2 km/h 6.4 km/h 54% 0 mm meteobridge W/m2
16:45 3.8 °C -4.9 °C 1022.9 hPa SSE 6.4 km/h 9.7 km/h 53% 0 mm meteobridge W/m2
16:50 3.8 °C -4.2 °C 1022.6 hPa Calm   3.2 km/h 56% 0 mm meteobridge W/m2
16:55 3.7 °C -4.3 °C 1022.9 hPa North 4.7 km/h 4.8 km/h 56% 0 mm meteobridge W/m2
17:00 3.6 °C -4.4 °C 1022.9 hPa West 3.2 km/h 9.7 km/h 56% 0 mm meteobridge W/m2
17:05 3.4 °C -4.5 °C 1022.9 hPa NNW 3.2 km/h 11.3 km/h 56% 0 mm meteobridge W/m2
17:10 3.4 °C -4.5 °C 1022.9 hPa NNW 3.2 km/h 14.5 km/h 56% 0 mm meteobridge W/m2
17:15 3.3 °C -4.4 °C 1023.2 hPa NW 3.2 km/h 4.8 km/h 57% 0 mm meteobridge W/m2
17:20 3.2 °C -4.7 °C 1022.9 hPa WNW 3.2 km/h 8 km/h 56% 0 mm meteobridge W/m2
17:25 3.1 °C -4.8 °C 1023.2 hPa North 7.9 km/h 14.5 km/h 56% 0 mm meteobridge W/m2
17:30 3 °C -4.9 °C 1023.2 hPa North 1.4 km/h 9.7 km/h 56% 0 mm meteobridge W/m2
17:35 2.9 °C -5 °C 1023.2 hPa North 7.9 km/h 8 km/h 56% 0 mm meteobridge W/m2
17:40 2.9 °C -5 °C 1023.6 hPa Calm     56% 0 mm meteobridge W/m2
17:45 2.8 °C -4.9 °C 1023.6 hPa North 3.2 km/h 4.8 km/h 57% 0 mm meteobridge W/m2
17:50 2.7 °C -5 °C 1023.6 hPa West 1.4 km/h 4.8 km/h 57% 0 mm meteobridge W/m2
17:55 2.6 °C -5.1 °C 1023.6 hPa North 3.2 km/h 6.4 km/h 57% 0 mm meteobridge W/m2
18:00 2.5 °C -4.5 °C 1023.9 hPa NW 1.4 km/h 6.4 km/h 60% 0 mm meteobridge W/m2
18:05 2.4 °C -5 °C 1023.6 hPa Calm     58% 0 mm meteobridge W/m2
18:10 2.3 °C -5.1 °C 1023.9 hPa NNW 4.7 km/h 9.7 km/h 58% 0 mm meteobridge W/m2
18:15 2.2 °C -5 °C 1023.9 hPa NW 11.1 km/h 11.3 km/h 59% 0 mm meteobridge W/m2
18:20 2.1 °C -5.1 °C 1023.9 hPa Calm   9.7 km/h 59% 0 mm meteobridge W/m2
18:25 2.1 °C -5.3 °C 1023.9 hPa NW 1.4 km/h 11.3 km/h 58% 0 mm meteobridge W/m2
18:30 1.9 °C -5.3 °C 1024.3 hPa Calm   4.8 km/h 59% 0 mm meteobridge W/m2
18:35 1.9 °C -5.3 °C 1023.9 hPa Calm   6.4 km/h 59% 0 mm meteobridge W/m2
18:40 1.8 °C -5.6 °C 1024.3 hPa West 3.2 km/h 16.1 km/h 58% 0 mm meteobridge W/m2
18:45 1.7 °C -5.7 °C 1024.3 hPa Calm   8 km/h 58% 0 mm meteobridge W/m2
18:50 1.6 °C -5.8 °C 1024.3 hPa WSW 6.4 km/h 8 km/h 58% 0 mm meteobridge W/m2
18:55 1.5 °C -5.9 °C 1024.3 hPa NW 11.1 km/h 22.5 km/h 58% 0 mm meteobridge W/m2
19:00 1.4 °C -5.7 °C 1024.3 hPa SW 4.7 km/h 11.3 km/h 59% 0 mm meteobridge W/m2
19:05 1.3 °C -5.8 °C 1024.3 hPa Calm   8 km/h 59% 0 mm meteobridge W/m2
19:10 1.2 °C -5.9 °C 1024.6 hPa NNW 1.4 km/h 9.7 km/h 59% 0 mm meteobridge W/m2
19:15 1.2 °C -5.9 °C 1024.6 hPa ESE 3.2 km/h 11.3 km/h 59% 0 mm meteobridge W/m2
19:20 1.1 °C -6 °C 1024.6 hPa WNW 1.4 km/h 8 km/h 59% 0 mm meteobridge W/m2
19:25 0.9 °C -6 °C 1024.6 hPa North 1.4 km/h 6.4 km/h 60% 0 mm meteobridge W/m2
19:30 0.9 °C -5.8 °C 1024.9 hPa WNW 1.4 km/h 4.8 km/h 61% 0 mm meteobridge W/m2
19:35 0.8 °C -6.1 °C 1024.9 hPa North 3.2 km/h 6.4 km/h 60% 0 mm meteobridge W/m2
19:40 0.7 °C -5.7 °C 1024.9 hPa Calm   1.6 km/h 62% 0 mm meteobridge W/m2
19:45 0.6 °C -5.8 °C 1024.9 hPa Calm   8 km/h 62% 0 mm meteobridge W/m2
19:50 0.5 °C -5.9 °C 1024.9 hPa North 1.4 km/h 9.7 km/h 62% 0 mm meteobridge W/m2
19:55 0.4 °C -5.8 °C 1024.9 hPa WSW 4.7 km/h 6.4 km/h 63% 0 mm meteobridge W/m2
20:00 0.3 °C -6.1 °C 1025.3 hPa NW 3.2 km/h 12.9 km/h 62% 0 mm meteobridge W/m2
20:05 0.3 °C -5.9 °C 1025.3 hPa Calm   1.6 km/h 63% 0 mm meteobridge W/m2
20:10 0.1 °C -6.3 °C 1025.3 hPa WNW 3.2 km/h 3.2 km/h 62% 0 mm meteobridge W/m2
20:15 0.1 °C -6.3 °C 1025.6 hPa North 4.7 km/h 22.5 km/h 62% 0 mm meteobridge W/m2
20:20 -0.1 °C -6.5 °C 1025.3 hPa WNW 9.7 km/h 19.3 km/h 62% 0 mm meteobridge W/m2
20:25 -0.2 °C -6.4 °C 1025.6 hPa West 9.7 km/h 9.7 km/h 63% 0 mm meteobridge W/m2
20:30 -0.2 °C -6.4 °C 1025.6 hPa ENE 1.4 km/h 11.3 km/h 63% 0 mm meteobridge W/m2
20:35 -0.3 °C -6.5 °C 1025.6 hPa NNW 3.2 km/h 8 km/h 63% 0 mm meteobridge W/m2
20:40 -0.5 °C -6.7 °C 1025.6 hPa Calm   9.7 km/h 63% 0 mm meteobridge W/m2
20:45 -0.6 °C -6.4 °C 1025.6 hPa Calm   3.2 km/h 65% 0 mm meteobridge W/m2
20:50 -0.7 °C -6.7 °C 1025.6 hPa WNW 1.4 km/h 6.4 km/h 64% 0 mm meteobridge W/m2
20:55 -0.8 °C -6.6 °C 1025.6 hPa WNW 3.2 km/h 6.4 km/h 65% 0 mm meteobridge W/m2
21:00 -0.9 °C -6.7 °C 1025.6 hPa North 17.7 km/h 17.7 km/h 65% 0 mm meteobridge W/m2
21:05 -1 °C -6.7 °C 1025.6 hPa NNW 4.7 km/h 8 km/h 65% 0 mm meteobridge W/m2
21:10 -1.1 °C -6.6 °C 1025.6 hPa Calm   3.2 km/h 66% 0 mm meteobridge W/m2
21:15 -1.2 °C -6.5 °C 1025.6 hPa Calm   8 km/h 67% 0 mm meteobridge W/m2
21:20 -1.3 °C -6.4 °C 1025.6 hPa NNW 1.4 km/h 3.2 km/h 68% 0 mm meteobridge W/m2
21:25 -1.3 °C -6.8 °C 1025.6 hPa NNW 6.4 km/h 11.3 km/h 66% 0 mm meteobridge W/m2
21:30 -1.4 °C -7.1 °C 1025.6 hPa Calm   16.1 km/h 65% 0 mm meteobridge W/m2
21:35 -1.4 °C -6.7 °C 1025.6 hPa Calm   12.9 km/h 67% 0 mm meteobridge W/m2
21:40 -1.4 °C -7.1 °C 1025.6 hPa NW 1.4 km/h 9.7 km/h 65% 0 mm meteobridge W/m2
21:45 -1.5 °C -7.2 °C 1025.6 hPa WSW 1.4 km/h 12.9 km/h 65% 0 mm meteobridge W/m2
21:50 -1.6 °C -7.3 °C 1025.6 hPa NW 1.4 km/h 6.4 km/h 65% 0 mm meteobridge W/m2
21:55 -1.7 °C -7.4 °C 1025.6 hPa Calm   3.2 km/h 65% 0 mm meteobridge W/m2
22:00 -1.7 °C -7.6 °C 1025.6 hPa NNW 3.2 km/h 8 km/h 64% 0 mm meteobridge W/m2
22:05 -1.7 °C -7.8 °C 1025.6 hPa NNW 4.7 km/h 9.7 km/h 63% 0 mm meteobridge W/m2
22:10 -1.8 °C -7.7 °C 1026 hPa NNE 1.4 km/h 3.2 km/h 64% 0 mm meteobridge W/m2
22:15 -1.8 °C -7.7 °C 1026 hPa Calm   1.6 km/h 64% 0 mm meteobridge W/m2
22:20 -1.9 °C -7.8 °C 1026 hPa Calm   1.6 km/h 64% 0 mm meteobridge W/m2
22:25 -2 °C -7.9 °C 1026 hPa Calm   9.7 km/h 64% 0 mm meteobridge W/m2
22:30 -2 °C -7.9 °C 1026 hPa NNW 1.4 km/h 4.8 km/h 64% 0 mm meteobridge W/m2
22:35 -2.1 °C -7.8 °C 1026 hPa NNW 6.4 km/h 6.4 km/h 65% 0 mm meteobridge W/m2
22:40 -2.1 °C -7.8 °C 1026 hPa West 4.7 km/h 9.7 km/h 65% 0 mm meteobridge W/m2
22:45 -2.2 °C -8.1 °C 1026 hPa NNW 3.2 km/h 4.8 km/h 64% 0 mm meteobridge W/m2
22:50 -2.3 °C -8.2 °C 1026 hPa NNW 4.7 km/h 9.7 km/h 64% 0 mm meteobridge W/m2
22:55 -2.3 °C -8.2 °C 1026 hPa Calm   3.2 km/h 64% 0 mm meteobridge W/m2
23:00 -2.4 °C -8.5 °C 1026 hPa Calm   9.7 km/h 63% 0 mm meteobridge W/m2
23:05 -2.4 °C -8.5 °C 1026 hPa WNW 1.4 km/h 12.9 km/h 63% 0 mm meteobridge W/m2
23:10 -2.6 °C -8.7 °C 1026 hPa NW 4.7 km/h 11.3 km/h 63% 0 mm meteobridge W/m2
23:15 -2.6 °C -8.7 °C 1026.3 hPa NNE 3.2 km/h 9.7 km/h 63% 0 mm meteobridge W/m2
23:20 -2.7 °C -8.8 °C 1026 hPa North 4.7 km/h 14.5 km/h 63% 0 mm meteobridge W/m2
23:25 -2.8 °C -8.9 °C 1026.3 hPa NNE 3.2 km/h 20.9 km/h 63% 0 mm meteobridge W/m2
23:30 -2.9 °C -8.8 °C 1026.3 hPa North 3.2 km/h 20.9 km/h 64% 0 mm meteobridge W/m2
23:35 -2.9 °C -8.8 °C 1026.3 hPa Calm   11.3 km/h 64% 0 mm meteobridge W/m2
23:40 -3 °C -8.7 °C 1026.3 hPa West 4.7 km/h 11.3 km/h 65% 0 mm meteobridge W/m2
23:45 -3.1 °C -8.7 °C 1026.6 hPa Calm   14.5 km/h 65% 0 mm meteobridge W/m2
23:50 -3.1 °C -8.6 °C 1026.3 hPa Calm   1.6 km/h 66% 0 mm meteobridge W/m2
23:55 -3.2 °C -8.6 °C 1026.6 hPa NNW 11.1 km/h 12.9 km/h 66% 0 mm meteobridge W/m2
EllijayWeather
Compliments of Weather Underground - 2.5 mb